Terminal Aerodrome Forecast
Issued by NWS Pocatello, ID

Home | Current Version | Previous Version | Text Only | Print | Product List | Glossary On
Versions: 1 2 3 4 5 6 7 8 9 10 11 12 13 14 15 16 17 18 19 20 21
000
FTUS45 KPIH 192334
TAFBYI
TAF
KBYI 192334Z 2000/2024 21011KT P6SM VCSH SCT040 BKN080
     FM200600 21007KT P6SM SCT025 BKN040
     FM201600 VRB06KT P6SM BKN050=

USA.gov is the U.S. government's official web portal to all federal, state and local government web resources and services.